Impacts TAF Board INFO
FOR SITUATIONAL AWARENESS. NOT TO BE USED FOR FLIGHT PLANNING PURPOSES.
IDs:

KSTC - St Cloud Rgnl, MN, US

Issued at 1727 UTC 18 Jul 2018
Updated at 2010 UTC 18 Jul 2018
Potential Impact None Slight Moderate High
Time<<19/09Z 19/10Z 19/11Z 19/12Z 19/13Z 19/14Z 19/15Z 19/16Z 19/17Z 19/18Z 19/19Z 19/20Z 19/21Z>>
Type PRVL PRVL PRVL PRVL PRVL PRVL PRVL PRVL PRVL
VIS >6 >6 >6 >6 6 6 6 6 6
CIG 130 130 35 35 40 40 40 15 15
Cover BKN BKN OVC OVC BKN BKN BKN OVC OVC
FltCat VFR VFR VFR VFR VFR VFR VFR MVFR MVFR
WX -- -- VCSH VCSH -RA -RA -RA -RA -RA
WDir 130 130 120 120 110 110 110 120 120
WSpd 5 5 8 8 9 9 9 12 12
WGst -- -- -- -- -- -- -- -- --

Raw TAF
KSTC 181727Z 1818/1918 16005KT P6SM BKN250
  FM190600 13005KT P6SM BKN130
  FM191100 12008KT P6SM VCSH OVC035
  FM191300 11009KT 6SM -RA BKN040
  FM191600 12012KT 6SM -RA OVC015


METAR Board
Radar Display
Forecast Discussion

FOR SITUATIONAL AWARENESS. NOT TO BE USED FOR FLIGHT PLANNING PURPOSES.